Home > Products > Valid Products > TAF

000
FTUS42 TJSJ 230500
TAFISX
TAF
TISX 230527Z 2306/2406 11008KT P6SM FEW020 SCT030
     FM231400 10012KT P6SM SCT025
     FM232300 VRB05KT P6SM FEW025=



000
FTUS42 TJSJ 230500
TAFNCM
TAF
TNCM 230527Z 2306/2406 07007KT P6SM FEW020
     FM231500 12010KT P6SM SCT022
     FM232300 08006KT P6SM FEW020=



000
FTUS42 TJSJ 230500
TAFJBQ
TAF
TJBQ 230527Z 2306/2406 07005KT P6SM SCT030
     FM231400 07013KT P6SM SCT025
     FM232130 10005KT P6SM FEW025
      AMD NOT SKED TIL 231100=



000
FTUS42 TJSJ 230500
TAFJSJ
TAF
TJSJ 230527Z 2306/2406 00000KT P6SM FEW060
     FM231330 08012KT P6SM FEW030
     FM232330 VRB05KT P6SM FEW030=



000
FTUS42 TJSJ 230500
TAFKPK
TAF
TKPK 230527Z 2306/2406 06008KT P6SM SCT017
     FM231330 08010KT P6SM FEW022
     FM232300 06005KT P6SM FEW022
      AMD NOT SKED TIL 231100=



000
FTUS42 TJSJ 230500
TAFJMZ
TAF
TJMZ 230527Z 2306/2406 VRB05KT P6SM FEW030
     FM231430 27010KT P6SM SCT025
     FM231730 27010KT P6SM VCTS SCT025CB BKN040
     FM232200 07005KT P6SM SCT025 SCT040
      AMD NOT SKED TIL 231200=



000
FTUS42 TJSJ 230500
TAFJPS
TAF
TJPS 230527Z 2306/2406 00000KT P6SM FEW030
     FM231430 13012KT P6SM FEW030 SCT060
     FM232330 05003KT P6SM FEW030 SCT060=



000
FTUS42 TJSJ 230500
TAFIST
TAF
TIST 230527Z 2306/2406 11006KT P6SM SKC
     FM231400 12012KT P6SM SCT025
     FM232100 10007KT P6SM FEW025=



000
FTUS42 TJSJ 222300
TAFNCM
TAF
TNCM 222325Z 2300/2324 07009KT P6SM SCT019
     FM231500 12010KT P6SM SCT022
     FM232300 08006KT P6SM FEW020=



000
FTUS42 TJSJ 222300
TAFIST
TAF
TIST 222325Z 2300/2324 15008KT P6SM FEW030
     FM231400 12012KT P6SM SCT025
     FM232100 10007KT P6SM FEW025=



000
FTUS42 TJSJ 222300
TAFKPK
TAF
TKPK 222325Z 2300/2324 06008KT P6SM SCT017
     FM231330 08010KT P6SM FEW022
     FM232300 06005KT P6SM FEW022
      AMD NOT SKED 2302/2311=



000
FTUS42 TJSJ 222300
TAFJSJ
TAF
TJSJ 222325Z 2300/2324 10007KT P6SM FEW030
     FM231330 08012KT P6SM FEW030
     FM232330 VRB05KT P6SM FEW030=



000
FTUS42 TJSJ 222300
TAFJPS
TAF
TJPS 222325Z 2300/2324 VRB04KT P6SM FEW030
     FM231430 13012KT P6SM FEW030 SCT060
     FM232330 05003KT P6SM FEW030 SCT060
      AMD NOT SKED TIL 230300=



000
FTUS42 TJSJ 222300
TAFJBQ
TAF
TJBQ 222325Z 2300/2324 07005KT P6SM SCT030 SCT050
     FM231400 07013KT P6SM SCT025
     FM232130 10005KT P6SM FEW025
      AMD NOT SKED 2302/2311=



000
FTUS42 TJSJ 222300
TAFJMZ
TAF
TJMZ 222325Z 2300/2324 27005KT P6SM SCT030 SCT060
     FM231430 27010KT P6SM SCT025
     FM231730 27010KT P6SM VCTS SCT025CB BKN040
     FM232200 07005KT P6SM SCT025 SCT040
      AMD NOT SKED TIL 231200=



000
FTUS42 TJSJ 222300
TAFISX
TAF
TISX 222325Z 2300/2324 11008KT P6SM FEW020 SCT030
     FM231400 10012KT P6SM SCT025
     FM232300 VRB05KT P6SM FEW025=



000
FTUS42 TJSJ 221900 AAA
TAFJBQ
TAF AMD
TJBQ 221909Z 2219/2318 04013KT P6SM VCTS SCT025CB
     FM222130 10005KT P6SM FEW025
     FM231400 07013KT P6SM SCT025
      AMD NOT SKED 2302/2311=



000
FTUS42 TJSJ 221700
TAFJSJ
TAF
TJSJ 221734Z 2218/2318 06012KT P6SM SCT030
     FM222330 VRB05KT P6SM FEW030
     FM231330 08012KT P6SM FEW030=



000
FTUS42 TJSJ 221700
TAFISX
TAF
TISX 221734Z 2218/2318 11010KT P6SM SCT025
     FM222300 VRB05KT P6SM FEW025
     FM231400 10012KT P6SM SCT025=



000
FTUS42 TJSJ 221700
TAFIST
TAF
TIST 221734Z 2218/2318 15012KT P6SM SCT025
     FM222100 10007KT P6SM FEW025
     FM231400 12012KT P6SM SCT025=



000
FTUS42 TJSJ 221700
TAFNCM
TAF
TNCM 221734Z 2218/2318 10010KT P6SM SCT022
     FM222300 08006KT P6SM FEW020
     FM231500 12010KT P6SM SCT022=



000
FTUS42 TJSJ 221700
TAFJMZ
TAF
TJMZ 221734Z 2218/2318 27010KT P6SM VCTS SCT025CB BKN040
     FM222200 07005KT P6SM SCT025 SCT040
     FM231430 27010KT P6SM SCT025
     FM231730 27010KT P6SM VCTS SCT025CB BKN040
      AMD NOT SKED 2223/2312=



000
FTUS42 TJSJ 221700
TAFJBQ
TAF
TJBQ 221734Z 2218/2318 08013KT P6SM VCTS SCT025CB
     FM222250 10005KT P6SM FEW025
     FM231400 07013KT P6SM SCT025
      AMD NOT SKED 2302/2311=



000
FTUS42 TJSJ 221700
TAFKPK
TAF
TKPK 221734Z 2218/2318 06011KT P6SM SCT020
     FM231330 08010KT P6SM FEW022
      AMD NOT SKED 2302/2311=



000
FTUS42 TJSJ 221700
TAFJPS
TAF
TJPS 221734Z 2218/2318 13012KT P6SM FEW030 SCT060
     FM222330 05003KT P6SM FEW030 SCT060
     FM231430 13012KT P6SM FEW030 SCT060
      AMD NOT SKED TIL 230300=



000
FTUS42 TJSJ 221700
TAFJBQ
TAF
TJBQ 221734Z 2218/2318 08013KT P6SM VCTS SCT025CB
     FM222250 10005KT P6SM FEW025
     FM231400 07013KT P6SM SCT025
      AMD NOT SKED 2302/2311=



000
FTUS42 TJSJ 221700
TAFISX
TAF
TISX 221734Z 2218/2318 11010KT P6SM SCT025
     FM222300 VRB05KT P6SM FEW025
     FM231400 10012KT P6SM SCT025=



000
FTUS42 TJSJ 221700
TAFJPS
TAF
TJPS 221734Z 2218/2318 13012KT P6SM FEW030 SCT060
     FM222330 05003KT P6SM FEW030 SCT060
     FM231430 13012KT P6SM FEW030 SCT060
      AMD NOT SKED TIL 230300=



000
FTUS42 TJSJ 221700
TAFJMZ
TAF
TJMZ 221734Z 2218/2318 27010KT P6SM VCTS SCT025CB BKN040
     FM222200 07005KT P6SM SCT025 SCT040
     FM231430 27010KT P6SM SCT025
     FM231730 27010KT P6SM VCTS SCT025CB BKN040
      AMD NOT SKED 2223/2312=



000
FTUS42 TJSJ 221700
TAFIST
TAF
TIST 221734Z 2218/2318 15012KT P6SM SCT025
     FM222100 10007KT P6SM FEW025
     FM231400 12012KT P6SM SCT025=



000
FTUS42 TJSJ 221700
TAFKPK
TAF
TKPK 221734Z 2218/2318 06011KT P6SM SCT020
     FM231330 08010KT P6SM FEW022
      AMD NOT SKED 2302/2311=



000
FTUS42 TJSJ 221700
TAFJSJ
TAF
TJSJ 221734Z 2218/2318 06012KT P6SM SCT030
     FM222330 VRB05KT P6SM FEW030
     FM231330 08012KT P6SM FEW030=



000
FTUS42 TJSJ 221700
TAFNCM
TAF
TNCM 221734Z 2218/2318 10010KT P6SM SCT022
     FM222300 08006KT P6SM FEW020
     FM231500 12010KT P6SM SCT022=



000
FTUS42 TJSJ 221200 AAA
TAFISX
TAF AMD
TISX 221215Z 2212/2312 08007KT P6SM SKC
     FM221330 11013KT P6SM SCT025
     FM222300 06006KT P6SM FEW025=



000
FTUS42 TJSJ 221200 AAA
TAFKPK
TAF AMD
TKPK 221214Z 2212/2312 08011KT P6SM SCT020
     FM222300 06005KT P6SM FEW022
      AMD NOT SKED 2302/2311=



000
FTUS42 TJSJ 221100
TAFNCM
TAF
TNCM 221128Z 2212/2312 07005KT P6SM FEW020
     FM221500 10010KT P6SM SCT022
     FM222300 08006KT P6SM FEW020=



000
FTUS42 TJSJ 221100
TAFJBQ
TAF
TJBQ 221128Z 2212/2312 VRB04KT P6SM VCSH BKN080
     FM221400 08013KT P6SM SCT025
     FM222250 09008KT P6SM SCT025
      AMD NOT SKED 2302/2311=



000
FTUS42 TJSJ 221100
TAFIST
TAF
TIST 221128Z 2212/2312 11005KT P6SM VCSH SCT025
     FM221300 13012KT P6SM SCT025
     FM222100 09007KT P6SM FEW025=



000
FTUS42 TJSJ 221100
TAFJMZ
TAF
TJMZ 221128Z 2212/2312 VRB05KT P6SM SCT025 SCT060
     FM221530 27010KT P6SM SCT025 BKN040
     FM222200 06005KT P6SM SCT025 SCT040
      AMD NOT SKED 2223/2312=



000
FTUS42 TJSJ 221100
TAFJPS
TAF
TJPS 221128Z 2212/2312 VRB04KT P6SM FEW025 SCT070
     FM221500 13012KT P6SM FEW030 SCT060
     FM222330 05003KT P6SM FEW030 SCT060
      AMD NOT SKED TIL 230300=



000
FTUS42 TJSJ 221100
TAFKPK
TAF
TKPK 221128Z 2212/2312 05011KT P6SM SCT014
     FM221500 08011KT P6SM SCT020
     FM222300 04005KT P6SM FEW022
      AMD NOT SKED 2302/2311=



000
FTUS42 TJSJ 221100
TAFJSJ
TAF
TJSJ 221128Z 2212/2312 VRB04KT P6SM FEW030 SCT080
     FM221400 08012KT P6SM SCT025
     FM222200 10006KT P6SM FEW030 SCT070=



000
FTUS42 TJSJ 221100
TAFISX
TAF
TISX 221128Z 2212/2312 36004KT P6SM SKC
     FM221300 11013KT P6SM SCT025
     FM222300 06006KT P6SM FEW025=



000
FTUS42 TJSJ 220500
TAFJBQ
TAF
TJBQ 220521Z 2206/2306 VRB04KT P6SM VCSH BKN080
     FM221400 08013KT P6SM SCT025
     FM222250 09008KT P6SM SCT025
      AMD NOT SKED TIL 221100=



000
FTUS42 TJSJ 220500
TAFJSJ
TAF
TJSJ 220521Z 2206/2306 00000KT P6SM FEW030 SCT060
     FM221300 08012KT P6SM SCT025
     FM222200 10006KT P6SM FEW030 SCT070=



000
FTUS42 TJSJ 220500
TAFJPS
TAF
TJPS 220521Z 2206/2306 VRB04KT P6SM FEW025 SCT070
     FM221500 13012KT P6SM FEW030 SCT060
     FM222330 05003KT P6SM FEW030 SCT060=



000
FTUS42 TJSJ 220500
TAFIST
TAF
TIST 220521Z 2206/2306 11005KT P6SM VCSH SCT025
     FM221300 13012KT P6SM SCT025
     FM222100 09007KT P6SM FEW025=



000
FTUS42 TJSJ 220500
TAFNCM
TAF
TNCM 220521Z 2206/2306 10003KT P6SM FEW020
     FM221500 10010KT P6SM SCT022
     FM222300 08006KT P6SM FEW020=



000
FTUS42 TJSJ 220500
TAFISX
TAF
TISX 220521Z 2206/2306 03005KT P6SM SKC
     FM221300 11013KT P6SM SCT025
     FM222300 06006KT P6SM FEW025=



000
FTUS42 TJSJ 220500
TAFKPK
TAF
TKPK 220521Z 2206/2306 05005KT P6SM FEW019
     FM221500 08011KT P6SM SCT020
     FM222300 04005KT P6SM FEW022
      AMD NOT SKED TIL 221100=



000
FTUS42 TJSJ 220500
TAFJMZ
TAF
TJMZ 220521Z 2206/2306 VRB05KT P6SM SCT025 SCT060
     FM221530 27010KT P6SM SCT025 BKN040
     FM222200 06005KT P6SM SCT025 SCT040
      AMD NOT SKED TIL 221100=



000
FTUS42 TJSJ 220500
TAFJPS
TAF
TJPS 220521Z 2206/2306 VRB04KT P6SM FEW025 SCT070
     FM221500 13012KT P6SM FEW030 SCT060
     FM222330 05003KT P6SM FEW030 SCT060=



000
FTUS42 TJSJ 220500
TAFIST
TAF
TIST 220521Z 2206/2306 11005KT P6SM VCSH SCT025
     FM221300 13012KT P6SM SCT025
     FM222100 09007KT P6SM FEW025=



000
FTUS42 TJSJ 220500
TAFKPK
TAF
TKPK 220521Z 2206/2306 05005KT P6SM FEW019
     FM221500 08011KT P6SM SCT020
     FM222300 04005KT P6SM FEW022
      AMD NOT SKED TIL 221100=



000
FTUS42 TJSJ 220500
TAFJSJ
TAF
TJSJ 220521Z 2206/2306 00000KT P6SM FEW030 SCT060
     FM221300 08012KT P6SM SCT025
     FM222200 10006KT P6SM FEW030 SCT070=



000
FTUS42 TJSJ 220500
TAFJMZ
TAF
TJMZ 220521Z 2206/2306 VRB05KT P6SM SCT025 SCT060
     FM221530 27010KT P6SM SCT025 BKN040
     FM222200 06005KT P6SM SCT025 SCT040
      AMD NOT SKED TIL 221100=



000
FTUS42 TJSJ 220500
TAFJBQ
TAF
TJBQ 220521Z 2206/2306 VRB04KT P6SM VCSH BKN080
     FM221400 08013KT P6SM SCT025
     FM222250 09008KT P6SM SCT025
      AMD NOT SKED TIL 221100=



000
FTUS42 TJSJ 220500
TAFNCM
TAF
TNCM 220521Z 2206/2306 10003KT P6SM FEW020
     FM221500 10010KT P6SM SCT022
     FM222300 08006KT P6SM FEW020=



000
FTUS42 TJSJ 220500
TAFISX
TAF
TISX 220521Z 2206/2306 03005KT P6SM SKC
     FM221300 11013KT P6SM SCT025
     FM222300 06006KT P6SM FEW025=



000
FTUS42 TJSJ 212300
TAFISX
TAF
TISX 212326Z 2200/2224 06005KT P6SM FEW022
     FM221300 11013KT P6SM SCT025
     FM222300 06006KT P6SM FEW025=



000
FTUS42 TJSJ 212300
TAFIST
TAF
TIST 212326Z 2200/2224 11005KT P6SM VCSH SCT025
     FM221300 13012KT P6SM SCT025
     FM222100 09007KT P6SM FEW025=



000
FTUS42 TJSJ 212300
TAFJBQ
TAF
TJBQ 212326Z 2200/2224 VRB04KT P6SM VCSH SCT025 BKN050
      TEMPO 2200/2201 5SM -SHRA SCT022 BKN050
     FM221400 08013KT P6SM SCT025
     FM222250 09008KT P6SM SCT025
      AMD NOT SKED 2202/2211=



000
FTUS42 TJSJ 212300
TAFJMZ
TAF
TJMZ 212326Z 2200/2224 26006KT P6SM SCT025 SCT060
      TEMPO 2200/2201 5SM -SHRA SCT025 BKN050
     FM221530 27010KT P6SM SCT025 BKN040
     FM222200 06005KT P6SM SCT025 SCT040
      AMD NOT SKED TIL 221100=



000
FTUS42 TJSJ 212300
TAFJPS
TAF
TJPS 212326Z 2200/2224 VRB04KT P6SM FEW025 SCT070
     FM221500 13012KT P6SM FEW030 SCT060
     FM222330 05003KT P6SM FEW030 SCT060
      AMD NOT SKED TIL 220300=



000
FTUS42 TJSJ 212300
TAFKPK
TAF
TKPK 212326Z 2200/2224 05005KT P6SM FEW019
     FM221500 08011KT P6SM SCT020
     FM222300 04005KT P6SM FEW022
      AMD NOT SKED 2202/2211=



000
FTUS42 TJSJ 212300
TAFIST
TAF
TIST 212326Z 2200/2224 11005KT P6SM VCSH SCT025
     FM221300 13012KT P6SM SCT025
     FM222100 09007KT P6SM FEW025=



000
FTUS42 TJSJ 212300
TAFJSJ
TAF
TJSJ 212326Z 2200/2224 07008KT P6SM FEW025 SCT060
     FM221300 08012KT P6SM SCT025
     FM222200 10006KT P6SM FEW030 SCT070=



000
FTUS42 TJSJ 212300
TAFNCM
TAF
TNCM 212326Z 2200/2224 08007KT P6SM FEW022
     FM221500 10010KT P6SM SCT022
     FM222300 08006KT P6SM FEW020=



000
FTUS42 TJSJ 212300
TAFJMZ
TAF
TJMZ 212326Z 2200/2224 26006KT P6SM SCT025 SCT060
      TEMPO 2200/2201 5SM -SHRA SCT025 BKN050
     FM221530 27010KT P6SM SCT025 BKN040
     FM222200 06005KT P6SM SCT025 SCT040
      AMD NOT SKED TIL 221100=



000
FTUS42 TJSJ 212300
TAFISX
TAF
TISX 212326Z 2200/2224 06005KT P6SM FEW022
     FM221300 11013KT P6SM SCT025
     FM222300 06006KT P6SM FEW025=



000
FTUS42 TJSJ 212300
TAFKPK
TAF
TKPK 212326Z 2200/2224 05005KT P6SM FEW019
     FM221500 08011KT P6SM SCT020
     FM222300 04005KT P6SM FEW022
      AMD NOT SKED 2202/2211=



000
FTUS42 TJSJ 212300
TAFJBQ
TAF
TJBQ 212326Z 2200/2224 VRB04KT P6SM VCSH SCT025 BKN050
      TEMPO 2200/2201 5SM -SHRA SCT022 BKN050
     FM221400 08013KT P6SM SCT025
     FM222250 09008KT P6SM SCT025
      AMD NOT SKED 2202/2211=



000
FTUS42 TJSJ 212300
TAFJPS
TAF
TJPS 212326Z 2200/2224 VRB04KT P6SM FEW025 SCT070
     FM221500 13012KT P6SM FEW030 SCT060
     FM222330 05003KT P6SM FEW030 SCT060
      AMD NOT SKED TIL 220300=



000
FTUS42 TJSJ 212300
TAFNCM
TAF
TNCM 212326Z 2200/2224 08007KT P6SM FEW022
     FM221500 10010KT P6SM SCT022
     FM222300 08006KT P6SM FEW020=



000
FTUS42 TJSJ 212300
TAFJSJ
TAF
TJSJ 212326Z 2200/2224 07008KT P6SM FEW025 SCT060
     FM221300 08012KT P6SM SCT025
     FM222200 10006KT P6SM FEW030 SCT070=



000
FTUS42 TJSJ 211700 RRA
TAFJSJ
TAF
TJSJ 211756Z 2118/2218 05012G20KT P6SM VCTS SCT030 SCT050CB
     FM212200 10006KT P6SM FEW030 SCT070
     FM221300 08012KT P6SM SCT025=



000
FTUS42 TJSJ 211700 RRA
TAFKPK
TAF
TKPK 211756Z 2118/2218 08011KT P6SM SCT020
     FM212300 04005KT P6SM FEW022
      AMD NOT SKED 2202/2211=



000
FTUS42 TJSJ 211700 RRA
TAFJPS
TAF
TJPS 211756Z 2118/2218 16011KT P6SM VCTS SCT025CB SCT050
     FM212330 05003KT P6SM FEW030 SCT060
     FM221500 13012KT P6SM FEW030 SCT060
      AMD NOT SKED TIL 220300=



000
FTUS42 TJSJ 211700 RRA
TAFISX
TAF
TISX 211756Z 2118/2218 10009KT P6SM FEW025 SCT035
     FM212300 06006KT P6SM FEW025
     FM221300 11013KT P6SM SCT025=



000
FTUS42 TJSJ 211700 RRA
TAFNCM
TAF
TNCM 211756Z 2118/2218 10010KT P6SM SCT022
     FM212300 08006KT P6SM FEW020=



000
FTUS42 TJSJ 211700 RRA
TAFIST
TAF
TIST 211756Z 2118/2218 11011KT P6SM VCSH SCT025
     FM212100 09007KT P6SM FEW025
     FM221300 13012KT P6SM SCT025=



000
FTUS42 TJSJ 211700 RRA
TAFJMZ
TAF
TJMZ 211756Z 2118/2218 27010G15KT P6SM VCTS SCT030CB BKN050
      TEMPO 2118/2121 2SM TSRA BKN025CB
     FM212200 06005KT P6SM SCT025 SCT040
     FM221530 27010KT P6SM SCT025 BKN040
      AMD NOT SKED 2123/2211=



000
FTUS42 TJSJ 211700 RRA
TAFJBQ
TAF
TJBQ 211756Z 2118/2218 06012G17KT P6SM VCTS SCT025CB BKN040
      TEMPO 2118/2121 3SM TSRA BKN025CB
     FM212250 09008KT P6SM SCT025
     FM221400 08013KT P6SM SCT025
      AMD NOT SKED 2202/2211=



000
FTUS42 TJSJ 211100
TAFJPS
TAF
TJPS 211137Z 2112/2212 VRB03KT P6SM FEW030 FEW060
     FM211500 15008KT P6SM FEW030
     FM211800 16011KT P6SM VCTS SCT025CB SCT050
     FM212330 05003KT P6SM FEW030 SCT060
      AMD NOT SKED TIL 220300=



000
FTUS42 TJSJ 211100
TAFJMZ
TAF
TJMZ 211137Z 2112/2212 VRB04KT P6SM FEW025
     FM211400 25008KT P6SM SCT040
     FM211700 27010G15KT P6SM VCTS BKN030CB BKN040
      TEMPO 2118/2121 2SM TSRA BKN025CB
     FM212200 06005KT P6SM SCT025 SCT040
      AMD NOT SKED 2123/2211=



000
FTUS42 TJSJ 211100
TAFNCM
TAF
TNCM 211137Z 2112/2212 09007KT P6SM VCSH FEW020
     FM211500 10010KT P6SM SCT022
     FM212300 08006KT P6SM FEW020=



000
FTUS42 TJSJ 211100
TAFISX
TAF
TISX 211137Z 2112/2212 08007KT P6SM FEW025 SCT035
     FM211500 11011KT P6SM VCSH SCT025 SCT035 SCT050
     FM211800 10009KT P6SM FEW025 SCT035
     FM212300 06006KT P6SM FEW025=



000
FTUS42 TJSJ 211100
TAFJBQ
TAF
TJBQ 211137Z 2112/2212 VRB05KT P6SM FEW025
     FM211400 07010KT P6SM FEW025
     FM211700 06012G17KT P6SM VCTS SCT025CB BKN040
      TEMPO 2118/2121 3SM TSRA BKN025CB
     FM212250 09008KT P6SM SCT025
      AMD NOT SKED 2202/2211=



000
FTUS42 TJSJ 211100
TAFIST
TAF
TIST 211137Z 2112/2212 09006KT P6SM VCSH FEW025 FEW035
     FM211500 11009KT P6SM SCT025 SCT050
     FM211800 11011KT P6SM FEW025 SCT035
     FM212100 09007KT P6SM FEW025=



000
FTUS42 TJSJ 211100
TAFJSJ
TAF
TJSJ 211137Z 2112/2212 VRB04KT P6SM VCSH FEW025
     FM211300 07008KT P6SM FEW030 SCT060
     FM211800 06012KT P6SM VCSH SCT030 SCT050
     FM212200 10006KT P6SM FEW030 SCT070=



000
FTUS42 TJSJ 211100
TAFKPK
TAF
TKPK 211137Z 2112/2212 06008KT P6SM VCSH FEW018 SCT022
     FM211500 08011KT P6SM SCT020
     FM212300 04005KT P6SM FEW022
      AMD NOT SKED 2202/2211=



000
FTUS42 TJSJ 211100
TAFJMZ
TAF
TJMZ 211137Z 2112/2212 VRB04KT P6SM FEW025
     FM211400 25008KT P6SM SCT040
     FM211700 27010G15KT P6SM VCTS BKN030CB BKN040
      TEMPO 2118/2121 2SM TSRA BKN025CB
     FM212200 06005KT P6SM SCT025 SCT040
      AMD NOT SKED 2123/2211=



000
FTUS42 TJSJ 211100
TAFISX
TAF
TISX 211137Z 2112/2212 08007KT P6SM FEW025 SCT035
     FM211500 11011KT P6SM VCSH SCT025 SCT035 SCT050
     FM211800 10009KT P6SM FEW025 SCT035
     FM212300 06006KT P6SM FEW025=



000
FTUS42 TJSJ 211100
TAFNCM
TAF
TNCM 211137Z 2112/2212 09007KT P6SM VCSH FEW020
     FM211500 10010KT P6SM SCT022
     FM212300 08006KT P6SM FEW020=



000
FTUS42 TJSJ 211100
TAFJBQ
TAF
TJBQ 211137Z 2112/2212 VRB05KT P6SM FEW025
     FM211400 07010KT P6SM FEW025
     FM211700 06012G17KT P6SM VCTS SCT025CB BKN040
      TEMPO 2118/2121 3SM TSRA BKN025CB
     FM212250 09008KT P6SM SCT025
      AMD NOT SKED 2202/2211=



000
FTUS42 TJSJ 211100
TAFIST
TAF
TIST 211137Z 2112/2212 09006KT P6SM VCSH FEW025 FEW035
     FM211500 11009KT P6SM SCT025 SCT050
     FM211800 11011KT P6SM FEW025 SCT035
     FM212100 09007KT P6SM FEW025=



000
FTUS42 TJSJ 211100
TAFJSJ
TAF
TJSJ 211137Z 2112/2212 VRB04KT P6SM VCSH FEW025
     FM211300 07008KT P6SM FEW030 SCT060
     FM211800 06012KT P6SM VCSH SCT030 SCT050
     FM212200 10006KT P6SM FEW030 SCT070=



000
FTUS42 TJSJ 211100
TAFKPK
TAF
TKPK 211137Z 2112/2212 06008KT P6SM VCSH FEW018 SCT022
     FM211500 08011KT P6SM SCT020
     FM212300 04005KT P6SM FEW022
      AMD NOT SKED 2202/2211=



000
FTUS42 TJSJ 211100
TAFJPS
TAF
TJPS 211137Z 2112/2212 VRB03KT P6SM FEW030 FEW060
     FM211500 15008KT P6SM FEW030
     FM211800 16011KT P6SM VCTS SCT025CB SCT050
     FM212330 05003KT P6SM FEW030 SCT060
      AMD NOT SKED TIL 220300=



000
FTUS42 TJSJ 210500 RRA
TAFISX
TAF
TISX 210544Z 2106/2206 VRB05KT P6SM FEW030
     FM211500 10010KT P6SM VCSH SCT025 SCT035 SCT050
     FM212300 06006KT P6SM FEW025=



000
FTUS42 TJSJ 210500 RRA
TAFIST
TAF
TIST 210544Z 2106/2206 VRB05KT P6SM FEW025 SCT035
     FM210900 09004KT P6SM VCSH SCT025 SCT035
     FM211200 10008KT P6SM VCSH SCT025 SCT035 SCT050
     FM212100 09007KT P6SM FEW025=



000
FTUS42 TJSJ 210500 RRA
TAFJMZ
TAF
TJMZ 210544Z 2106/2206 VRB04KT P6SM VCSH SCT025
     FM211400 25010KT P6SM SCT040
     FM211700 27010G15KT P6SM VCTS BKN030CB BKN040
     FM212200 06005KT P6SM SCT025 SCT040
      AMD NOT SKED TIL 211100=



000
FTUS42 TJSJ 210500 RRA
TAFJPS
TAF
TJPS 210544Z 2106/2206 VRB03KT P6SM FEW030 FEW060
     FM211500 15010KT P6SM FEW030
     FM211800 16010KT P6SM VCTS SCT025CB SCT050
     FM212330 05003KT P6SM FEW030 SCT060
      AMD NOT SKED 2112/2203=



000
FTUS42 TJSJ 210500 RRA
TAFKPK
TAF
TKPK 210544Z 2106/2206 VRB05KT P6SM VCSH SCT022
     FM211200 08010KT P6SM VCSH FEW018 SCT022
     FM212300 04005KT P6SM FEW022
      AMD NOT SKED TIL 211100=



000
FTUS42 TJSJ 210500 RRA
TAFNCM
TAF
TNCM 210544Z 2106/2206 09007KT P6SM VCSH FEW020
     FM211500 10010KT P6SM SCT022
     FM212300 08006KT P6SM FEW020=



000
FTUS42 TJSJ 210500 RRA
TAFJSJ
TAF
TJSJ 210544Z 2106/2206 VRB04KT P6SM VCSH FEW025 SCT060
     FM211300 07010KT P6SM VCSH SCT030 SCT050
     FM212200 10006KT P6SM SCT030 SCT070=



000
FTUS42 TJSJ 210500 RRA
TAFJBQ
TAF
TJBQ 210544Z 2106/2206 VRB05KT P6SM SCT025
     FM211400 07010KT P6SM FEW025
     FM211700 06010G15KT P6SM VCTS BKN025CB BKN040
     FM212250 09008KT P6SM SCT025
      AMD NOT SKED TIL 211100=



000
FTUS42 TJSJ 202300
TAFNCM
TAF
TNCM 202338Z 2100/2124 08006KT P6SM FEW020
     FM211500 10010KT P6SM SCT022
     FM212300 08006KT P6SM FEW020=



000
FTUS42 TJSJ 202300
TAFJPS
TAF
TJPS 202338Z 2100/2124 00000KT P6SM FEW030 SCT060
     FM211500 15010KT P6SM VCTS SCT025CB SCT050
     FM212330 05003KT P6SM FEW030 SCT060
      AMD NOT SKED TIL 210300=



000
FTUS42 TJSJ 202300
TAFJMZ
TAF
TJMZ 202338Z 2100/2124 06006KT P6SM VCSH SCT025
     FM211400 25010KT P6SM SCT040
     FM211700 28010KT P6SM VCTS BKN030CB
     FM212200 06006KT P6SM SCT025 SCT040
      AMD NOT SKED TIL 211100=



000
FTUS42 TJSJ 202300
TAFJBQ
TAF
TJBQ 202338Z 2100/2124 10005KT P6SM VCSH SCT025
     FM211400 07010KT P6SM FEW025
     FM211700 06010G15KT P6SM VCTS SCT025CB BKN040
     FM212300 09008KT P6SM SCT025
      AMD NOT SKED 2102/2111=



000
FTUS42 TJSJ 202300
TAFKPK
TAF
TKPK 202338Z 2100/2124 VRB05KT P6SM VCSH SCT022
     FM211200 08010KT P6SM FEW018
     FM212300 04005KT P6SM FEW022
      AMD NOT SKED 2102/2111=



000
FTUS42 TJSJ 202300
TAFIST
TAF
TIST 202338Z 2100/2124 07005KT P6SM FEW025
     FM211500 11012KT P6SM VCSH SCT025
     FM212300 09008KT P6SM FEW025=



000
FTUS42 TJSJ 202300
TAFJSJ
TAF
TJSJ 202338Z 2100/2124 VRB04KT P6SM FEW025
     FM211300 07012KT P6SM SCT030
     FM212200 10006KT P6SM SCT030 SCT070=



000
FTUS42 TJSJ 202300
TAFISX
TAF
TISX 202338Z 2100/2124 VRB05KT P6SM FEW030
     FM211500 10010KT P6SM VCSH SCT030
     FM212300 06006KT P6SM FEW025=



000
FTUS42 TJSJ 201700 AAA
TAFJMZ
TAF AMD
TJMZ 201749Z 2018/2118 28010KT P6SM BKN040
      TEMPO 2018/2020 VRB10KT 3SM TSRA BKN025CB
     FM202200 06006KT P6SM SCT025
     FM211400 25010KT P6SM SCT040
     FM211700 28010KT P6SM VCTS BKN030CB
      AMD NOT SKED=



000
FTUS42 TJSJ 201700
TAFNCM
TAF
TNCM 201739Z 2018/2118 06010KT P6SM SCT022
     FM202300 09006KT P6SM FEW020=



000
FTUS42 TJSJ 201700
TAFKPK
TAF
TKPK 201739Z 2018/2118 05010KT P6SM SCT022
     FM211200 08010KT P6SM FEW018
      AMD NOT SKED 2102/2111=



000
FTUS42 TJSJ 201700
TAFJSJ
TAF
TJSJ 201739Z 2018/2118 06011KT P6SM VCSH SCT030 SCT050
     FM202300 VRB04KT P6SM VCSH FEW030
     FM211300 07010KT P6SM SCT030=



000
FTUS42 TJSJ 201700
TAFJMZ
TAF
TJMZ 201739Z 2018/2118 28010KT P6SM BKN040
     FM202200 06006KT P6SM SCT025
     FM211400 25010KT P6SM SCT040
     FM211700 28010KT P6SM VCTS BKN030CB
      AMD NOT SKED=



000
FTUS42 TJSJ 201700
TAFJPS
TAF
TJPS 201739Z 2018/2118 15010KT P6SM VCTS SCT025CB BKN050
      TEMPO 2018/2020 VRB10G20KT 4SM TSRA BKN025CB
     FM202330 VRB03KT P6SM FEW030 SCT060
     FM211500 15010KT P6SM VCTS SCT025CB SCT050
      AMD NOT SKED TIL 210300=



000
FTUS42 TJSJ 201700
TAFISX
TAF
TISX 201739Z 2018/2118 10010KT P6SM VCSH SCT025 SCT045
      TEMPO 2018/2020 VRB10KT 5SM SHRA BKN030
     FM202100 VRB05KT P6SM VCSH FEW025
     FM211500 10010KT P6SM FEW025=



000
FTUS42 TJSJ 201700
TAFIST
TAF
TIST 201739Z 2018/2118 12010KT P6SM VCSH FEW025
      TEMPO 2018/2020 VRB10KT 5SM SHRA BKN030
     FM202200 06005KT P6SM VCSH FEW025
     FM211500 11010KT P6SM FEW025=



000
FTUS42 TJSJ 201700
TAFJBQ
TAF
TJBQ 201739Z 2018/2118 06012KT P6SM FEW025
     FM202300 10005KT P6SM FEW025
     FM211700 07010KT P6SM FEW025
      AMD NOT SKED 2102/2111=



000
FTUS42 TJSJ 201600 AAA
TAFISX
TAF AMD
TISX 201652Z 2017/2112 10010KT P6SM VCTS SCT025CB SCT045
     FM202100 VRB05KT P6SM VCSH FEW025=



000
FTUS42 TJSJ 201500 AAB
TAFIST
TAF AMD
TIST 201538Z 2016/2112 07010KT P6SM VCSH FEW025
      TEMPO 2016/2017 VRB10KT 4SM SHRA BKN035=



000
FTUS42 TJSJ 201300 AAA
TAFIST
TAF AMD
TIST 201336Z 2014/2112 07010KT P6SM VCSH FEW025=



000
FTUS42 TJSJ 201100
TAFKPK
TAF
TKPK 201121Z 2012/2112 VRB05KT P6SM FEW020
     FM201300 08010KT P6SM SCT022
     FM202300 04006KT P6SM FEW018
      AMD NOT SKED 2102/2111=



000
FTUS42 TJSJ 201100
TAFJBQ
TAF
TJBQ 201121Z 2012/2112 VRB03KT P6SM FEW025
     FM201400 07010KT P6SM FEW025 SCT050
     FM201800 06012G17KT P6SM VCTS SCT025CB SCT040
     FM202300 10005KT P6SM SCT025
      AMD NOT SKED 2102/2111=



000
FTUS42 TJSJ 201100
TAFJPS
TAF
TJPS 201121Z 2012/2112 VRB04KT P6SM FEW030 SCT060
     FM201400 17007KT P6SM FEW030 SCT060
     FM201800 14010KT P6SM VCTS SCT025CB BKN050
     FM202330 VRB03KT P6SM FEW030 SCT060
      AMD NOT SKED TIL 210300=



000
FTUS42 TJSJ 201100
TAFISX
TAF
TISX 201121Z 2012/2112 01004KT P6SM VCSH FEW025 SCT030
     FM201300 08010KT P6SM SCT025
     FM201900 09010KT P6SM SCT025 SCT035
     FM202300 VRB05KT P6SM FEW025=



000
FTUS42 TJSJ 201100
TAFJSJ
TAF
TJSJ 201121Z 2012/2112 VRB03KT P6SM VCSH FEW025 SCT060
     FM201300 06008KT P6SM VCSH SCT025 SCT100
     FM201800 06011KT P6SM VCSH SCT030 SCT050
     FM202200 10004KT P6SM SCT030=



000
FTUS42 TJSJ 201100
TAFNCM
TAF
TNCM 201121Z 2012/2112 07005KT P6SM FEW018
     FM201300 10010KT P6SM SCT022
     FM202300 07006KT P6SM FEW020=



000
FTUS42 TJSJ 201100
TAFJMZ
TAF
TJMZ 201121Z 2012/2112 VRB05KT P6SM FEW025
     FM201530 25007KT P6SM SCT025 SCT040
     FM201750 28010G17KT P6SM VCTS BKN025CB BKN040
     FM202200 06006KT P6SM SCT025
      AMD NOT SKED TIL 201600=



000
FTUS42 TJSJ 201100
TAFIST
TAF
TIST 201121Z 2012/2112 06005KT P6SM VCSH SCT025 SCT035
     FM201300 12010KT P6SM SCT025
     FM202300 08007KT P6SM FEW025=



000
FTUS42 TJSJ 200700 AAA
TAFJSJ
TAF AMD
TJSJ 200715Z 2007/2106 VRB03KT P6SM VCSH FEW025 SCT035
     FM201300 06008KT P6SM VCSH SCT025 SCT100
     FM201800 06011KT P6SM VCSH SCT030 SCT050
     FM202200 10004KT P6SM SCT030=



    US Dept of Commerce
    National Oceanic and Atmospheric Administration
    National Weather Service
    1325 East West Highway
    Silver Spring, MD 20910
    Page Author: NWS Internet Services Team
Disclaimer
Information Quality
Credits
Glossary
Privacy Policy
Freedom of Information Act (FOIA)
About Us
Career Opportunities